sensor_id;sensor_type;location;lat;lon;timestamp;P1;durP1;ratioP1;P2;durP2;ratioP2
37453;SDS011;23315;52.078;4.756;2023-07-29T00:01:48;9.82;;;2.72;;
37453;SDS011;23315;52.078;4.756;2023-07-29T00:04:14;11.50;;;3.00;;
37453;SDS011;23315;52.078;4.756;2023-07-29T00:06:39;8.15;;;2.88;;
37453;SDS011;23315;52.078;4.756;2023-07-29T00:09:05;6.90;;;2.95;;
37453;SDS011;23315;52.078;4.756;2023-07-29T00:11:30;9.65;;;3.20;;
37453;SDS011;23315;52.078;4.756;2023-07-29T00:13:58;11.10;;;2.58;;
37453;SDS011;23315;52.078;4.756;2023-07-29T00:16:24;7.50;;;2.33;;
37453;SDS011;23315;52.078;4.756;2023-07-29T00:18:49;8.75;;;2.20;;
37453;SDS011;23315;52.078;4.756;2023-07-29T00:21:15;10.43;;;2.42;;
37453;SDS011;23315;52.078;4.756;2023-07-29T00:23:40;9.68;;;2.40;;
37453;SDS011;23315;52.078;4.756;2023-07-29T00:26:06;9.45;;;2.17;;
37453;SDS011;23315;52.078;4.756;2023-07-29T00:28:31;7.43;;;2.28;;
37453;SDS011;23315;52.078;4.756;2023-07-29T00:30:57;7.10;;;1.85;;
37453;SDS011;23315;52.078;4.756;2023-07-29T00:33:22;6.72;;;2.10;;
37453;SDS011;23315;52.078;4.756;2023-07-29T00:35:48;8.80;;;2.08;;
37453;SDS011;23315;52.078;4.756;2023-07-29T00:38:13;6.38;;;2.42;;
37453;SDS011;23315;52.078;4.756;2023-07-29T00:40:38;4.97;;;1.73;;
37453;SDS011;23315;52.078;4.756;2023-07-29T00:43:04;7.78;;;2.25;;
37453;SDS011;23315;52.078;4.756;2023-07-29T00:45:30;7.82;;;2.05;;
37453;SDS011;23315;52.078;4.756;2023-07-29T00:47:57;5.85;;;1.92;;
37453;SDS011;23315;52.078;4.756;2023-07-29T00:50:22;7.30;;;2.15;;
37453;SDS011;23315;52.078;4.756;2023-07-29T00:52:48;7.70;;;1.77;;
37453;SDS011;23315;52.078;4.756;2023-07-29T00:55:14;7.15;;;2.60;;
37453;SDS011;23315;52.078;4.756;2023-07-29T00:57:39;7.88;;;2.20;;
37453;SDS011;23315;52.078;4.756;2023-07-29T01:00:06;8.95;;;2.03;;
37453;SDS011;23315;52.078;4.756;2023-07-29T01:02:31;7.00;;;2.10;;
37453;SDS011;23315;52.078;4.756;2023-07-29T01:04:58;11.45;;;2.42;;
37453;SDS011;23315;52.078;4.756;2023-07-29T01:07:33;6.00;;;2.05;;
37453;SDS011;23315;52.078;4.756;2023-07-29T01:10:07;4.25;;;1.73;;
37453;SDS011;23315;52.078;4.756;2023-07-29T01:16:14;8.40;;;2.42;;
37453;SDS011;23315;52.078;4.756;2023-07-29T01:18:22;5.93;;;2.10;;
37453;SDS011;23315;52.078;4.756;2023-07-29T01:20:48;9.27;;;2.38;;
37453;SDS011;23315;52.078;4.756;2023-07-29T01:23:31;10.13;;;2.88;;
37453;SDS011;23315;52.078;4.756;2023-07-29T01:25:57;6.68;;;2.35;;
37453;SDS011;23315;52.078;4.756;2023-07-29T01:28:23;10.25;;;2.20;;
37453;SDS011;23315;52.078;4.756;2023-07-29T01:30:49;6.25;;;2.40;;
37453;SDS011;23315;52.078;4.756;2023-07-29T01:33:20;7.90;;;2.25;;
37453;SDS011;23315;52.078;4.756;2023-07-29T01:35:52;4.70;;;1.92;;
37453;SDS011;23315;52.078;4.756;2023-07-29T01:38:21;7.63;;;2.20;;
37453;SDS011;23315;52.078;4.756;2023-07-29T01:41:03;8.98;;;2.55;;
37453;SDS011;23315;52.078;4.756;2023-07-29T01:43:29;7.95;;;2.53;;
37453;SDS011;23315;52.078;4.756;2023-07-29T01:45:55;10.98;;;2.55;;
37453;SDS011;23315;52.078;4.756;2023-07-29T01:48:20;8.45;;;2.45;;
37453;SDS011;23315;52.078;4.756;2023-07-29T01:50:46;6.03;;;2.65;;
37453;SDS011;23315;52.078;4.756;2023-07-29T01:53:12;7.20;;;2.78;;
37453;SDS011;23315;52.078;4.756;2023-07-29T01:55:38;6.05;;;2.20;;
37453;SDS011;23315;52.078;4.756;2023-07-29T01:58:03;6.43;;;2.28;;
37453;SDS011;23315;52.078;4.756;2023-07-29T02:00:29;6.25;;;2.60;;
37453;SDS011;23315;52.078;4.756;2023-07-29T02:02:54;7.22;;;2.50;;
37453;SDS011;23315;52.078;4.756;2023-07-29T02:05:20;7.15;;;2.10;;
37453;SDS011;23315;52.078;4.756;2023-07-29T02:07:45;8.68;;;3.00;;
37453;SDS011;23315;52.078;4.756;2023-07-29T02:10:11;8.45;;;2.80;;
37453;SDS011;23315;52.078;4.756;2023-07-29T02:12:36;8.10;;;2.25;;
37453;SDS011;23315;52.078;4.756;2023-07-29T02:15:02;10.68;;;3.10;;
37453;SDS011;23315;52.078;4.756;2023-07-29T02:17:27;10.00;;;2.30;;
37453;SDS011;23315;52.078;4.756;2023-07-29T02:19:53;11.50;;;3.55;;
37453;SDS011;23315;52.078;4.756;2023-07-29T02:22:18;7.95;;;3.67;;
37453;SDS011;23315;52.078;4.756;2023-07-29T02:24:44;8.25;;;2.90;;
37453;SDS011;23315;52.078;4.756;2023-07-29T02:27:10;7.30;;;3.33;;
37453;SDS011;23315;52.078;4.756;2023-07-29T02:29:35;10.55;;;4.05;;
37453;SDS011;23315;52.078;4.756;2023-07-29T02:32:01;9.52;;;3.22;;
37453;SDS011;23315;52.078;4.756;2023-07-29T02:34:27;7.97;;;3.00;;
37453;SDS011;23315;52.078;4.756;2023-07-29T02:36:52;7.00;;;3.13;;
37453;SDS011;23315;52.078;4.756;2023-07-29T02:39:18;9.02;;;3.20;;
37453;SDS011;23315;52.078;4.756;2023-07-29T02:41:43;12.40;;;4.10;;
37453;SDS011;23315;52.078;4.756;2023-07-29T02:44:09;8.25;;;3.53;;
37453;SDS011;23315;52.078;4.756;2023-07-29T02:46:34;10.85;;;3.83;;
37453;SDS011;23315;52.078;4.756;2023-07-29T02:49:01;10.15;;;4.03;;
37453;SDS011;23315;52.078;4.756;2023-07-29T02:51:27;15.27;;;3.45;;
37453;SDS011;23315;52.078;4.756;2023-07-29T02:53:52;14.95;;;4.10;;
37453;SDS011;23315;52.078;4.756;2023-07-29T02:56:18;9.52;;;4.15;;
37453;SDS011;23315;52.078;4.756;2023-07-29T02:58:43;10.30;;;3.47;;
37453;SDS011;23315;52.078;4.756;2023-07-29T03:01:09;17.60;;;3.22;;
37453;SDS011;23315;52.078;4.756;2023-07-29T03:03:35;8.40;;;3.13;;
37453;SDS011;23315;52.078;4.756;2023-07-29T03:06:01;7.13;;;3.03;;
37453;SDS011;23315;52.078;4.756;2023-07-29T03:08:28;7.20;;;2.90;;
37453;SDS011;23315;52.078;4.756;2023-07-29T03:10:53;10.10;;;4.88;;
37453;SDS011;23315;52.078;4.756;2023-07-29T03:13:19;11.25;;;3.50;;
37453;SDS011;23315;52.078;4.756;2023-07-29T03:15:45;11.10;;;3.25;;
37453;SDS011;23315;52.078;4.756;2023-07-29T03:18:10;9.05;;;2.97;;
37453;SDS011;23315;52.078;4.756;2023-07-29T03:20:36;12.95;;;3.30;;
37453;SDS011;23315;52.078;4.756;2023-07-29T03:23:01;8.02;;;2.80;;
37453;SDS011;23315;52.078;4.756;2023-07-29T03:25:27;6.63;;;2.90;;
37453;SDS011;23315;52.078;4.756;2023-07-29T03:27:53;10.65;;;3.22;;
37453;SDS011;23315;52.078;4.756;2023-07-29T03:30:20;8.38;;;3.53;;
37453;SDS011;23315;52.078;4.756;2023-07-29T03:32:46;11.93;;;3.10;;
37453;SDS011;23315;52.078;4.756;2023-07-29T03:35:12;8.80;;;2.95;;
37453;SDS011;23315;52.078;4.756;2023-07-29T03:37:38;7.45;;;2.92;;
37453;SDS011;23315;52.078;4.756;2023-07-29T03:40:04;7.22;;;2.53;;
37453;SDS011;23315;52.078;4.756;2023-07-29T03:42:30;8.88;;;3.08;;
37453;SDS011;23315;52.078;4.756;2023-07-29T03:44:55;9.88;;;2.95;;
37453;SDS011;23315;52.078;4.756;2023-07-29T03:47:21;6.53;;;2.67;;
37453;SDS011;23315;52.078;4.756;2023-07-29T03:49:46;8.27;;;2.65;;
37453;SDS011;23315;52.078;4.756;2023-07-29T03:52:12;8.02;;;3.20;;
37453;SDS011;23315;52.078;4.756;2023-07-29T03:54:37;7.47;;;2.65;;
37453;SDS011;23315;52.078;4.756;2023-07-29T03:57:02;7.47;;;2.63;;
37453;SDS011;23315;52.078;4.756;2023-07-29T03:59:28;9.50;;;2.95;;
37453;SDS011;23315;52.078;4.756;2023-07-29T04:01:54;9.13;;;2.83;;
37453;SDS011;23315;52.078;4.756;2023-07-29T04:04:19;9.25;;;2.97;;
37453;SDS011;23315;52.078;4.756;2023-07-29T04:06:45;12.55;;;3.58;;
37453;SDS011;23315;52.078;4.756;2023-07-29T04:09:10;8.50;;;3.17;;
37453;SDS011;23315;52.078;4.756;2023-07-29T04:11:36;14.30;;;3.28;;
37453;SDS011;23315;52.078;4.756;2023-07-29T04:14:01;9.65;;;2.42;;
37453;SDS011;23315;52.078;4.756;2023-07-29T04:16:27;12.73;;;3.10;;
37453;SDS011;23315;52.078;4.756;2023-07-29T04:18:53;12.07;;;3.13;;
37453;SDS011;23315;52.078;4.756;2023-07-29T04:21:19;14.43;;;3.45;;
37453;SDS011;23315;52.078;4.756;2023-07-29T04:23:44;8.75;;;3.95;;
37453;SDS011;23315;52.078;4.756;2023-07-29T04:26:10;12.18;;;3.40;;
37453;SDS011;23315;52.078;4.756;2023-07-29T04:28:35;8.25;;;2.88;;
37453;SDS011;23315;52.078;4.756;2023-07-29T04:31:00;14.50;;;3.38;;
37453;SDS011;23315;52.078;4.756;2023-07-29T04:33:26;13.27;;;3.67;;
37453;SDS011;23315;52.078;4.756;2023-07-29T04:35:51;9.10;;;2.75;;
37453;SDS011;23315;52.078;4.756;2023-07-29T04:38:17;10.27;;;2.70;;
37453;SDS011;23315;52.078;4.756;2023-07-29T04:40:42;13.90;;;2.88;;
37453;SDS011;23315;52.078;4.756;2023-07-29T04:43:07;11.45;;;2.95;;
37453;SDS011;23315;52.078;4.756;2023-07-29T04:45:33;8.70;;;2.38;;
37453;SDS011;23315;52.078;4.756;2023-07-29T04:47:58;10.07;;;3.13;;
37453;SDS011;23315;52.078;4.756;2023-07-29T04:50:24;9.30;;;3.42;;
37453;SDS011;23315;52.078;4.756;2023-07-29T04:52:49;6.97;;;2.35;;
37453;SDS011;23315;52.078;4.756;2023-07-29T04:55:15;8.48;;;2.95;;
37453;SDS011;23315;52.078;4.756;2023-07-29T04:57:40;12.52;;;3.35;;
37453;SDS011;23315;52.078;4.756;2023-07-29T05:00:06;12.52;;;3.17;;
37453;SDS011;23315;52.078;4.756;2023-07-29T05:02:31;7.75;;;3.30;;
37453;SDS011;23315;52.078;4.756;2023-07-29T05:04:57;8.73;;;2.83;;
37453;SDS011;23315;52.078;4.756;2023-07-29T05:07:22;10.13;;;3.05;;
37453;SDS011;23315;52.078;4.756;2023-07-29T05:09:48;9.82;;;2.78;;
37453;SDS011;23315;52.078;4.756;2023-07-29T05:12:13;11.23;;;2.70;;
37453;SDS011;23315;52.078;4.756;2023-07-29T05:14:39;10.35;;;3.22;;
37453;SDS011;23315;52.078;4.756;2023-07-29T05:17:04;7.55;;;3.08;;
37453;SDS011;23315;52.078;4.756;2023-07-29T05:19:30;15.18;;;3.42;;
37453;SDS011;23315;52.078;4.756;2023-07-29T05:21:56;8.38;;;3.25;;
37453;SDS011;23315;52.078;4.756;2023-07-29T05:24:22;6.68;;;2.40;;
37453;SDS011;23315;52.078;4.756;2023-07-29T05:26:48;9.50;;;2.55;;
37453;SDS011;23315;52.078;4.756;2023-07-29T05:29:14;8.73;;;2.33;;
37453;SDS011;23315;52.078;4.756;2023-07-29T05:31:39;11.65;;;2.70;;
37453;SDS011;23315;52.078;4.756;2023-07-29T05:34:04;8.60;;;2.90;;
37453;SDS011;23315;52.078;4.756;2023-07-29T05:36:30;7.50;;;2.15;;
37453;SDS011;23315;52.078;4.756;2023-07-29T05:38:55;9.48;;;2.72;;
37453;SDS011;23315;52.078;4.756;2023-07-29T05:41:21;9.15;;;2.63;;
37453;SDS011;23315;52.078;4.756;2023-07-29T05:43:46;8.77;;;2.78;;
37453;SDS011;23315;52.078;4.756;2023-07-29T05:46:12;16.08;;;3.53;;
37453;SDS011;23315;52.078;4.756;2023-07-29T05:48:37;9.60;;;2.58;;
37453;SDS011;23315;52.078;4.756;2023-07-29T05:51:03;7.75;;;2.60;;
37453;SDS011;23315;52.078;4.756;2023-07-29T05:53:30;8.57;;;2.25;;
37453;SDS011;23315;52.078;4.756;2023-07-29T05:55:55;15.35;;;2.72;;
37453;SDS011;23315;52.078;4.756;2023-07-29T05:58:21;9.20;;;2.45;;
37453;SDS011;23315;52.078;4.756;2023-07-29T06:00:46;9.38;;;2.05;;
37453;SDS011;23315;52.078;4.756;2023-07-29T06:03:12;7.80;;;2.45;;
37453;SDS011;23315;52.078;4.756;2023-07-29T06:05:37;10.10;;;2.90;;
37453;SDS011;23315;52.078;4.756;2023-07-29T06:08:02;11.40;;;2.58;;
37453;SDS011;23315;52.078;4.756;2023-07-29T06:10:29;12.80;;;2.67;;
37453;SDS011;23315;52.078;4.756;2023-07-29T06:12:54;7.72;;;2.17;;
37453;SDS011;23315;52.078;4.756;2023-07-29T06:15:19;7.35;;;2.63;;
37453;SDS011;23315;52.078;4.756;2023-07-29T06:17:47;9.70;;;2.53;;
37453;SDS011;23315;52.078;4.756;2023-07-29T06:20:13;8.02;;;2.78;;
37453;SDS011;23315;52.078;4.756;2023-07-29T06:22:38;8.52;;;2.33;;
37453;SDS011;23315;52.078;4.756;2023-07-29T06:25:03;7.85;;;2.55;;
37453;SDS011;23315;52.078;4.756;2023-07-29T06:27:29;11.20;;;2.53;;
37453;SDS011;23315;52.078;4.756;2023-07-29T06:29:54;8.27;;;2.33;;
37453;SDS011;23315;52.078;4.756;2023-07-29T06:32:20;11.88;;;2.85;;
37453;SDS011;23315;52.078;4.756;2023-07-29T06:34:45;7.63;;;2.53;;
37453;SDS011;23315;52.078;4.756;2023-07-29T06:37:11;12.25;;;2.97;;
37453;SDS011;23315;52.078;4.756;2023-07-29T06:39:36;9.30;;;2.50;;
37453;SDS011;23315;52.078;4.756;2023-07-29T06:42:01;8.32;;;3.50;;
37453;SDS011;23315;52.078;4.756;2023-07-29T06:44:27;8.07;;;2.80;;
37453;SDS011;23315;52.078;4.756;2023-07-29T06:46:52;7.47;;;3.38;;
37453;SDS011;23315;52.078;4.756;2023-07-29T06:49:18;5.13;;;2.28;;
37453;SDS011;23315;52.078;4.756;2023-07-29T06:51:43;10.45;;;2.13;;
37453;SDS011;23315;52.078;4.756;2023-07-29T06:54:08;9.48;;;2.33;;
37453;SDS011;23315;52.078;4.756;2023-07-29T06:56:34;9.00;;;2.42;;
37453;SDS011;23315;52.078;4.756;2023-07-29T06:58:59;8.98;;;2.60;;
37453;SDS011;23315;52.078;4.756;2023-07-29T07:01:25;10.90;;;2.75;;
37453;SDS011;23315;52.078;4.756;2023-07-29T07:03:50;9.57;;;2.20;;
37453;SDS011;23315;52.078;4.756;2023-07-29T07:06:19;10.35;;;2.55;;
37453;SDS011;23315;52.078;4.756;2023-07-29T07:08:45;7.15;;;2.40;;
37453;SDS011;23315;52.078;4.756;2023-07-29T07:11:11;8.02;;;2.55;;
37453;SDS011;23315;52.078;4.756;2023-07-29T07:13:36;11.75;;;2.60;;
37453;SDS011;23315;52.078;4.756;2023-07-29T07:16:01;5.45;;;2.10;;
37453;SDS011;23315;52.078;4.756;2023-07-29T07:18:27;11.50;;;2.42;;
37453;SDS011;23315;52.078;4.756;2023-07-29T07:20:52;12.73;;;3.53;;
37453;SDS011;23315;52.078;4.756;2023-07-29T07:23:18;6.38;;;1.83;;
37453;SDS011;23315;52.078;4.756;2023-07-29T07:25:43;7.68;;;2.10;;
37453;SDS011;23315;52.078;4.756;2023-07-29T07:28:09;10.85;;;1.92;;
37453;SDS011;23315;52.078;4.756;2023-07-29T07:30:35;7.70;;;2.22;;
37453;SDS011;23315;52.078;4.756;2023-07-29T07:33:00;4.55;;;1.70;;
37453;SDS011;23315;52.078;4.756;2023-07-29T07:35:26;11.00;;;2.00;;
37453;SDS011;23315;52.078;4.756;2023-07-29T07:37:51;10.48;;;2.38;;
37453;SDS011;23315;52.078;4.756;2023-07-29T07:40:17;9.13;;;2.00;;
37453;SDS011;23315;52.078;4.756;2023-07-29T07:42:42;10.02;;;2.05;;
37453;SDS011;23315;52.078;4.756;2023-07-29T07:45:08;7.65;;;1.90;;
37453;SDS011;23315;52.078;4.756;2023-07-29T07:47:33;8.05;;;1.58;;
37453;SDS011;23315;52.078;4.756;2023-07-29T07:49:58;9.07;;;2.33;;
37453;SDS011;23315;52.078;4.756;2023-07-29T07:52:24;13.77;;;1.90;;
37453;SDS011;23315;52.078;4.756;2023-07-29T07:54:53;6.90;;;1.83;;
37453;SDS011;23315;52.078;4.756;2023-07-29T07:57:20;11.68;;;2.42;;
37453;SDS011;23315;52.078;4.756;2023-07-29T07:59:46;10.20;;;2.22;;
37453;SDS011;23315;52.078;4.756;2023-07-29T08:02:11;10.07;;;2.22;;
37453;SDS011;23315;52.078;4.756;2023-07-29T08:04:37;8.90;;;2.67;;
37453;SDS011;23315;52.078;4.756;2023-07-29T08:07:02;7.55;;;1.95;;
37453;SDS011;23315;52.078;4.756;2023-07-29T08:09:28;7.68;;;2.33;;
37453;SDS011;23315;52.078;4.756;2023-07-29T08:11:53;11.65;;;2.45;;
37453;SDS011;23315;52.078;4.756;2023-07-29T08:14:18;7.50;;;1.90;;
37453;SDS011;23315;52.078;4.756;2023-07-29T08:16:44;7.53;;;2.25;;
37453;SDS011;23315;52.078;4.756;2023-07-29T08:19:09;9.65;;;2.35;;
37453;SDS011;23315;52.078;4.756;2023-07-29T08:21:35;9.65;;;2.00;;
37453;SDS011;23315;52.078;4.756;2023-07-29T08:24:00;9.40;;;2.65;;
37453;SDS011;23315;52.078;4.756;2023-07-29T08:26:26;13.55;;;3.50;;
37453;SDS011;23315;52.078;4.756;2023-07-29T08:28:51;13.98;;;2.78;;
37453;SDS011;23315;52.078;4.756;2023-07-29T08:31:17;9.88;;;3.00;;
37453;SDS011;23315;52.078;4.756;2023-07-29T08:33:42;6.95;;;2.63;;
37453;SDS011;23315;52.078;4.756;2023-07-29T08:36:07;11.50;;;2.70;;
37453;SDS011;23315;52.078;4.756;2023-07-29T08:38:33;11.18;;;2.78;;
37453;SDS011;23315;52.078;4.756;2023-07-29T08:43:43;9.45;;;2.60;;
37453;SDS011;23315;52.078;4.756;2023-07-29T08:46:12;10.07;;;2.97;;
37453;SDS011;23315;52.078;4.756;2023-07-29T08:48:42;7.35;;;2.25;;
37453;SDS011;23315;52.078;4.756;2023-07-29T08:51:09;10.25;;;3.67;;
37453;SDS011;23315;52.078;4.756;2023-07-29T08:53:35;11.30;;;2.92;;
37453;SDS011;23315;52.078;4.756;2023-07-29T08:56:01;7.28;;;2.63;;
37453;SDS011;23315;52.078;4.756;2023-07-29T08:58:27;9.65;;;2.72;;
37453;SDS011;23315;52.078;4.756;2023-07-29T09:00:53;9.77;;;2.60;;
37453;SDS011;23315;52.078;4.756;2023-07-29T09:03:19;13.48;;;3.00;;
37453;SDS011;23315;52.078;4.756;2023-07-29T09:05:45;14.02;;;3.25;;
37453;SDS011;23315;52.078;4.756;2023-07-29T09:08:11;10.93;;;3.20;;
37453;SDS011;23315;52.078;4.756;2023-07-29T09:10:37;9.13;;;3.33;;
37453;SDS011;23315;52.078;4.756;2023-07-29T09:13:03;12.93;;;3.60;;
37453;SDS011;23315;52.078;4.756;2023-07-29T09:15:29;11.40;;;3.40;;
37453;SDS011;23315;52.078;4.756;2023-07-29T09:17:56;8.43;;;3.00;;
37453;SDS011;23315;52.078;4.756;2023-07-29T09:20:28;11.00;;;2.90;;
37453;SDS011;23315;52.078;4.756;2023-07-29T09:22:57;13.43;;;3.22;;
37453;SDS011;23315;52.078;4.756;2023-07-29T09:25:27;8.60;;;2.92;;
37453;SDS011;23315;52.078;4.756;2023-07-29T09:28:07;11.20;;;2.97;;
37453;SDS011;23315;52.078;4.756;2023-07-29T09:30:33;10.82;;;2.88;;
37453;SDS011;23315;52.078;4.756;2023-07-29T09:32:59;11.38;;;3.50;;
37453;SDS011;23315;52.078;4.756;2023-07-29T09:35:27;15.77;;;4.32;;
37453;SDS011;23315;52.078;4.756;2023-07-29T09:37:54;9.70;;;3.53;;
37453;SDS011;23315;52.078;4.756;2023-07-29T09:40:20;9.52;;;3.20;;
37453;SDS011;23315;52.078;4.756;2023-07-29T09:42:52;13.00;;;3.35;;
37453;SDS011;23315;52.078;4.756;2023-07-29T09:47:46;12.80;;;3.10;;
37453;SDS011;23315;52.078;4.756;2023-07-29T09:50:12;13.13;;;3.60;;
37453;SDS011;23315;52.078;4.756;2023-07-29T09:52:37;10.75;;;3.05;;
37453;SDS011;23315;52.078;4.756;2023-07-29T09:55:03;13.50;;;3.30;;
37453;SDS011;23315;52.078;4.756;2023-07-29T09:57:29;8.13;;;3.70;;
37453;SDS011;23315;52.078;4.756;2023-07-29T09:59:55;10.20;;;3.20;;
37453;SDS011;23315;52.078;4.756;2023-07-29T10:02:21;14.05;;;3.28;;
37453;SDS011;23315;52.078;4.756;2023-07-29T10:04:47;7.28;;;2.40;;
37453;SDS011;23315;52.078;4.756;2023-07-29T10:07:13;7.10;;;2.90;;
37453;SDS011;23315;52.078;4.756;2023-07-29T10:09:39;10.90;;;3.05;;
37453;SDS011;23315;52.078;4.756;2023-07-29T10:12:08;11.68;;;3.25;;
37453;SDS011;23315;52.078;4.756;2023-07-29T10:14:34;11.68;;;3.38;;
37453;SDS011;23315;52.078;4.756;2023-07-29T10:17:00;9.98;;;2.78;;
37453;SDS011;23315;52.078;4.756;2023-07-29T10:19:26;7.75;;;2.80;;
37453;SDS011;23315;52.078;4.756;2023-07-29T10:21:52;11.27;;;3.17;;
37453;SDS011;23315;52.078;4.756;2023-07-29T10:24:22;12.82;;;3.20;;
37453;SDS011;23315;52.078;4.756;2023-07-29T10:26:53;8.45;;;2.83;;
37453;SDS011;23315;52.078;4.756;2023-07-29T10:29:24;10.98;;;2.80;;
37453;SDS011;23315;52.078;4.756;2023-07-29T10:31:52;12.35;;;3.63;;
37453;SDS011;23315;52.078;4.756;2023-07-29T10:34:21;7.97;;;2.95;;
37453;SDS011;23315;52.078;4.756;2023-07-29T10:36:47;14.10;;;3.35;;
37453;SDS011;23315;52.078;4.756;2023-07-29T10:39:13;8.18;;;3.13;;
37453;SDS011;23315;52.078;4.756;2023-07-29T10:41:54;8.30;;;2.70;;
37453;SDS011;23315;52.078;4.756;2023-07-29T10:47:11;10.73;;;3.08;;
37453;SDS011;23315;52.078;4.756;2023-07-29T10:49:40;8.00;;;2.83;;
37453;SDS011;23315;52.078;4.756;2023-07-29T10:52:06;8.05;;;3.22;;
37453;SDS011;23315;52.078;4.756;2023-07-29T10:54:31;8.98;;;2.95;;
37453;SDS011;23315;52.078;4.756;2023-07-29T10:57:16;6.75;;;2.72;;
37453;SDS011;23315;52.078;4.756;2023-07-29T10:59:58;5.32;;;2.25;;
37453;SDS011;23315;52.078;4.756;2023-07-29T11:02:34;5.53;;;2.22;;
37453;SDS011;23315;52.078;4.756;2023-07-29T11:05:21;5.65;;;2.53;;
37453;SDS011;23315;52.078;4.756;2023-07-29T11:07:49;9.05;;;2.60;;
37453;SDS011;23315;52.078;4.756;2023-07-29T11:10:15;9.57;;;3.22;;
37453;SDS011;23315;52.078;4.756;2023-07-29T11:17:36;8.32;;;2.85;;
37453;SDS011;23315;52.078;4.756;2023-07-29T11:20:07;3.80;;;2.13;;
37453;SDS011;23315;52.078;4.756;2023-07-29T11:22:33;5.53;;;2.05;;
37453;SDS011;23315;52.078;4.756;2023-07-29T11:24:59;6.80;;;1.95;;
37453;SDS011;23315;52.078;4.756;2023-07-29T11:27:24;5.18;;;1.60;;
37453;SDS011;23315;52.078;4.756;2023-07-29T11:29:50;5.07;;;1.70;;
37453;SDS011;23315;52.078;4.756;2023-07-29T11:32:15;12.32;;;1.98;;
37453;SDS011;23315;52.078;4.756;2023-07-29T11:34:42;10.35;;;2.30;;
37453;SDS011;23315;52.078;4.756;2023-07-29T11:37:11;7.13;;;1.90;;
37453;SDS011;23315;52.078;4.756;2023-07-29T11:39:42;8.23;;;2.30;;
37453;SDS011;23315;52.078;4.756;2023-07-29T11:42:12;6.97;;;2.05;;
37453;SDS011;23315;52.078;4.756;2023-07-29T11:44:38;8.55;;;2.40;;
37453;SDS011;23315;52.078;4.756;2023-07-29T11:47:07;7.68;;;2.60;;
37453;SDS011;23315;52.078;4.756;2023-07-29T11:49:37;4.97;;;1.75;;
37453;SDS011;23315;52.078;4.756;2023-07-29T11:52:03;7.03;;;2.50;;
37453;SDS011;23315;52.078;4.756;2023-07-29T11:54:29;5.53;;;2.13;;
37453;SDS011;23315;52.078;4.756;2023-07-29T11:56:55;4.47;;;2.25;;
37453;SDS011;23315;52.078;4.756;2023-07-29T11:59:20;6.25;;;1.83;;
37453;SDS011;23315;52.078;4.756;2023-07-29T12:01:46;7.78;;;2.15;;
37453;SDS011;23315;52.078;4.756;2023-07-29T12:04:11;6.10;;;1.40;;
37453;SDS011;23315;52.078;4.756;2023-07-29T12:06:37;6.00;;;1.73;;
37453;SDS011;23315;52.078;4.756;2023-07-29T12:09:03;4.60;;;1.45;;
37453;SDS011;23315;52.078;4.756;2023-07-29T12:11:28;5.38;;;1.83;;
37453;SDS011;23315;52.078;4.756;2023-07-29T12:13:54;3.72;;;1.73;;
37453;SDS011;23315;52.078;4.756;2023-07-29T12:16:19;4.22;;;1.60;;
37453;SDS011;23315;52.078;4.756;2023-07-29T12:18:45;3.33;;;1.50;;
37453;SDS011;23315;52.078;4.756;2023-07-29T12:21:10;4.78;;;1.50;;
37453;SDS011;23315;52.078;4.756;2023-07-29T12:23:36;4.03;;;1.50;;
37453;SDS011;23315;52.078;4.756;2023-07-29T12:26:01;4.68;;;1.23;;
37453;SDS011;23315;52.078;4.756;2023-07-29T12:28:27;4.03;;;1.70;;
37453;SDS011;23315;52.078;4.756;2023-07-29T12:30:53;3.88;;;1.52;;
37453;SDS011;23315;52.078;4.756;2023-07-29T12:36:00;4.28;;;1.25;;
37453;SDS011;23315;52.078;4.756;2023-07-29T12:38:26;4.80;;;1.25;;
37453;SDS011;23315;52.078;4.756;2023-07-29T12:40:52;4.45;;;1.30;;
37453;SDS011;23315;52.078;4.756;2023-07-29T12:43:17;4.57;;;1.60;;
37453;SDS011;23315;52.078;4.756;2023-07-29T12:45:42;5.88;;;1.33;;
37453;SDS011;23315;52.078;4.756;2023-07-29T12:48:09;2.95;;;0.80;;
37453;SDS011;23315;52.078;4.756;2023-07-29T12:50:35;3.20;;;0.90;;
37453;SDS011;23315;52.078;4.756;2023-07-29T12:53:01;3.42;;;1.05;;
37453;SDS011;23315;52.078;4.756;2023-07-29T12:55:26;6.68;;;1.10;;
37453;SDS011;23315;52.078;4.756;2023-07-29T12:57:51;5.93;;;1.13;;
37453;SDS011;23315;52.078;4.756;2023-07-29T13:00:17;3.88;;;1.00;;
37453;SDS011;23315;52.078;4.756;2023-07-29T13:02:43;5.43;;;1.35;;
37453;SDS011;23315;52.078;4.756;2023-07-29T13:05:11;6.53;;;1.30;;
37453;SDS011;23315;52.078;4.756;2023-07-29T13:07:40;4.95;;;0.90;;
37453;SDS011;23315;52.078;4.756;2023-07-29T13:10:07;6.10;;;1.23;;
37453;SDS011;23315;52.078;4.756;2023-07-29T13:12:33;4.75;;;1.10;;
37453;SDS011;23315;52.078;4.756;2023-07-29T13:14:58;5.35;;;1.00;;
37453;SDS011;23315;52.078;4.756;2023-07-29T13:17:24;2.88;;;0.93;;
37453;SDS011;23315;52.078;4.756;2023-07-29T13:19:50;4.03;;;1.00;;
37453;SDS011;23315;52.078;4.756;2023-07-29T13:22:15;5.03;;;1.88;;
37453;SDS011;23315;52.078;4.756;2023-07-29T13:24:41;6.53;;;1.08;;
37453;SDS011;23315;52.078;4.756;2023-07-29T13:27:06;3.60;;;0.85;;
37453;SDS011;23315;52.078;4.756;2023-07-29T13:29:32;2.88;;;0.70;;
37453;SDS011;23315;52.078;4.756;2023-07-29T13:31:57;2.85;;;0.85;;
37453;SDS011;23315;52.078;4.756;2023-07-29T13:34:23;3.15;;;0.85;;
37453;SDS011;23315;52.078;4.756;2023-07-29T13:36:48;3.05;;;0.93;;
37453;SDS011;23315;52.078;4.756;2023-07-29T13:39:13;3.03;;;1.05;;
37453;SDS011;23315;52.078;4.756;2023-07-29T13:41:39;3.60;;;1.10;;
37453;SDS011;23315;52.078;4.756;2023-07-29T13:44:04;1.50;;;0.88;;
37453;SDS011;23315;52.078;4.756;2023-07-29T13:46:29;3.88;;;0.98;;
37453;SDS011;23315;52.078;4.756;2023-07-29T13:48:55;3.10;;;0.90;;
37453;SDS011;23315;52.078;4.756;2023-07-29T13:51:20;2.67;;;1.00;;
37453;SDS011;23315;52.078;4.756;2023-07-29T13:53:46;3.85;;;0.80;;
37453;SDS011;23315;52.078;4.756;2023-07-29T13:56:11;5.72;;;1.38;;
37453;SDS011;23315;52.078;4.756;2023-07-29T13:58:36;1.50;;;0.70;;
37453;SDS011;23315;52.078;4.756;2023-07-29T14:01:02;1.80;;;0.70;;
37453;SDS011;23315;52.078;4.756;2023-07-29T14:03:27;3.97;;;0.82;;
37453;SDS011;23315;52.078;4.756;2023-07-29T14:05:53;4.15;;;0.98;;
37453;SDS011;23315;52.078;4.756;2023-07-29T14:08:18;1.40;;;0.85;;
37453;SDS011;23315;52.078;4.756;2023-07-29T14:10:43;3.35;;;1.20;;
37453;SDS011;23315;52.078;4.756;2023-07-29T14:13:09;6.25;;;1.27;;
37453;SDS011;23315;52.078;4.756;2023-07-29T14:15:34;3.42;;;1.20;;
37453;SDS011;23315;52.078;4.756;2023-07-29T14:18:00;5.07;;;1.20;;
37453;SDS011;23315;52.078;4.756;2023-07-29T14:20:27;5.10;;;1.13;;
37453;SDS011;23315;52.078;4.756;2023-07-29T14:22:52;3.45;;;1.20;;
37453;SDS011;23315;52.078;4.756;2023-07-29T14:25:18;6.45;;;1.45;;
37453;SDS011;23315;52.078;4.756;2023-07-29T14:27:43;4.78;;;1.13;;
37453;SDS011;23315;52.078;4.756;2023-07-29T14:30:09;2.50;;;1.15;;
37453;SDS011;23315;52.078;4.756;2023-07-29T14:32:34;3.33;;;1.13;;
37453;SDS011;23315;52.078;4.756;2023-07-29T14:35:00;5.28;;;1.40;;
37453;SDS011;23315;52.078;4.756;2023-07-29T14:37:29;5.32;;;1.42;;
37453;SDS011;23315;52.078;4.756;2023-07-29T14:39:55;3.28;;;1.50;;
37453;SDS011;23315;52.078;4.756;2023-07-29T14:42:22;3.13;;;0.95;;
37453;SDS011;23315;52.078;4.756;2023-07-29T14:44:47;3.85;;;1.33;;
37453;SDS011;23315;52.078;4.756;2023-07-29T14:47:13;4.13;;;1.30;;
37453;SDS011;23315;52.078;4.756;2023-07-29T14:49:38;5.25;;;1.00;;
37453;SDS011;23315;52.078;4.756;2023-07-29T14:52:03;5.97;;;1.67;;
37453;SDS011;23315;52.078;4.756;2023-07-29T14:54:29;4.15;;;1.30;;
37453;SDS011;23315;52.078;4.756;2023-07-29T14:56:55;4.40;;;1.15;;